Time;durP1;ratioP1;P1;durP2;ratioP2;P2;SDS_P1;SDS_P2;PMS_P1;PMS_P2;Temp;Humidity;BMP_temperature;BMP_pressure;BME280_temperature;BME280_humidity;BME280_pressure;Samples;Min_cycle;Max_cycle;Signal;HPM_P1;HPM_P2
2022/10/10 00:02:40;;;;;;;19.67;11.65;;;;;;;4.74;100.00;101283.63;10342661;28;20066;-77
2022/10/10 00:07:41;;;;;;;19.48;10.45;;;;;;;4.72;100.00;101277.41;10361047;28;20603;-77
2022/10/10 00:12:41;;;;;;;14.68;9.82;;;;;;;4.70;100.00;101281.56;10360076;28;20041;-76
2022/10/10 00:17:42;;;;;;;21.00;11.93;;;;;;;4.64;100.00;101278.50;10361776;28;20128;-77
2022/10/10 00:22:43;;;;;;;17.65;11.18;;;;;;;4.57;100.00;101277.09;10359338;28;20042;-77
2022/10/10 00:27:43;;;;;;;17.80;10.20;;;;;;;4.54;100.00;101277.78;10359171;28;20670;-77
2022/10/10 00:32:44;;;;;;;25.15;12.55;;;;;;;4.52;100.00;101266.41;10360251;28;20050;-76
2022/10/10 00:37:45;;;;;;;22.52;11.85;;;;;;;4.52;100.00;101261.22;10341161;28;20049;-77
2022/10/10 00:42:45;;;;;;;17.67;12.90;;;;;;;4.44;100.00;101262.28;10361223;28;20128;-77
2022/10/10 00:47:46;;;;;;;23.15;13.38;;;;;;;4.53;100.00;101259.50;10359610;28;20417;-76
2022/10/10 00:52:47;;;;;;;27.33;14.98;;;;;;;4.53;100.00;101255.25;10359580;28;20045;-76
2022/10/10 00:57:48;;;;;;;21.98;12.23;;;;;;;4.57;100.00;101252.88;10359652;28;20129;-77
2022/10/10 01:02:48;;;;;;;27.23;13.45;;;;;;;4.50;100.00;101254.06;10358643;28;20042;-77
2022/10/10 01:07:49;;;;;;;21.38;12.77;;;;;;;4.52;100.00;101255.09;10358308;28;20044;-77
2022/10/10 01:13:03;;;;;;;23.02;13.95;;;;;;;4.51;100.00;101249.03;10355999;28;20042;-77
2022/10/10 01:18:25;;;;;;;17.35;11.55;;;;;;;4.54;100.00;101248.34;10357827;28;20045;-77
2022/10/10 01:23:36;;;;;;;24.85;14.73;;;;;;;4.52;100.00;101247.31;10358105;28;21619;-76
2022/10/10 01:28:43;;;;;;;25.05;13.00;;;;;;;4.54;100.00;101244.09;10356787;28;20552;-77
2022/10/10 01:34:08;;;;;;;22.80;12.35;;;;;;;4.50;100.00;101231.66;10357154;28;20845;-77
2022/10/10 01:39:13;;;;;;;25.80;11.60;;;;;;;4.47;100.00;101226.25;10356213;28;20072;-77
2022/10/10 01:44:13;;;;;;;26.17;14.27;;;;;;;4.44;100.00;101222.50;10363736;28;20038;-77
2022/10/10 01:49:14;;;;;;;23.42;12.98;;;;;;;4.37;100.00;101222.00;10366929;28;20034;-77
2022/10/10 01:54:49;;;;;;;22.73;14.13;;;;;;;4.29;100.00;101219.63;10364234;28;20038;-77
2022/10/10 02:00:02;;;;;;;23.85;15.00;;;;;;;4.26;100.00;101207.31;10367095;28;20037;-77
2022/10/10 02:05:08;;;;;;;;;;;;;;;4.25;100.00;101211.59;10366843;28;20402;-77
2022/10/10 02:10:09;;;;;;;26.75;12.73;;;;;;;4.27;100.00;101206.53;10366402;28;19933;-77
2022/10/10 02:15:14;;;;;;;25.45;13.38;;;;;;;4.30;100.00;101201.59;10365063;28;20124;-77
2022/10/10 02:20:17;;;;;;;20.27;14.13;;;;;;;4.30;100.00;101196.41;10348021;28;20567;-77
2022/10/10 02:25:21;;;;;;;19.23;12.55;;;;;;;4.34;100.00;101190.69;10338057;28;20053;-77
2022/10/10 02:30:22;;;;;;;22.17;13.60;;;;;;;4.33;100.00;101193.16;10364270;28;20046;-77
2022/10/10 02:35:24;;;;;;;23.08;13.27;;;;;;;4.32;100.00;101186.16;10347050;28;20467;-77
2022/10/10 02:40:27;;;;;;;22.27;13.55;;;;;;;4.29;100.00;101185.94;10345303;28;20046;-78
2022/10/10 02:45:28;;;;;;;19.25;12.77;;;;;;;4.32;100.00;101176.69;10346790;28;20486;-77
2022/10/10 02:50:28;;;;;;;23.38;14.82;;;;;;;4.31;100.00;101177.47;10344193;28;20041;-77
2022/10/10 02:55:29;;;;;;;17.95;12.82;;;;;;;4.29;100.00;101176.47;10364120;28;20482;-77
2022/10/10 03:00:29;;;;;;;25.27;13.13;;;;;;;4.21;100.00;101181.06;10364654;28;20069;-77
2022/10/10 03:05:30;;;;;;;22.70;12.40;;;;;;;4.17;100.00;101175.50;10363718;28;20393;-77
2022/10/10 03:10:30;;;;;;;16.35;13.25;;;;;;;4.09;100.00;101172.31;10364341;28;20060;-77
2022/10/10 03:15:32;;;;;;;20.52;12.85;;;;;;;4.04;100.00;101174.53;10364130;28;20046;-76
2022/10/10 03:20:33;;;;;;;19.42;12.95;;;;;;;4.01;100.00;101173.41;10364312;28;20107;-77
2022/10/10 03:25:33;;;;;;;20.65;13.63;;;;;;;4.03;100.00;101162.38;10362957;28;20050;-77
2022/10/10 03:30:34;;;;;;;24.88;13.27;;;;;;;4.16;100.00;101163.31;10362701;28;20389;-77
2022/10/10 03:35:35;;;;;;;20.02;12.95;;;;;;;4.11;100.00;101163.88;10361215;28;20437;-77
2022/10/10 03:40:39;;;;;;;17.83;12.77;;;;;;;4.13;100.00;101164.00;10359680;28;20172;-78
2022/10/10 03:45:43;;;;;;;28.55;14.80;;;;;;;4.20;100.00;101161.13;10360469;28;20486;-77
2022/10/10 03:50:44;;;;;;;20.05;13.25;;;;;;;4.20;100.00;101161.13;10359944;28;20156;-78
2022/10/10 03:55:44;;;;;;;23.10;13.98;;;;;;;4.10;100.00;101164.66;10359324;28;20083;-77
2022/10/10 04:00:57;;;;;;;20.98;13.57;;;;;;;4.10;100.00;101158.59;10361870;28;20069;-76
2022/10/10 04:05:58;;;;;;;19.50;13.07;;;;;;;4.13;100.00;101164.00;10360161;28;20038;-78
2022/10/10 04:10:59;;;;;;;32.55;19.13;;;;;;;4.02;100.00;101157.97;10361302;28;20037;-77
2022/10/10 04:15:59;;;;;;;24.30;14.93;;;;;;;3.95;100.00;101143.66;10356261;28;20600;-77
2022/10/10 04:21:04;;;;;;;21.17;10.50;;;;;;;3.89;100.00;101153.53;10360913;28;20457;-78
2022/10/10 04:26:05;;;;;;;22.23;13.13;;;;;;;3.86;100.00;101149.78;10340050;28;20049;-78
2022/10/10 04:31:05;;;;;;;23.52;13.38;;;;;;;3.81;100.00;101154.59;10342977;28;20048;-78
2022/10/10 04:36:06;;;;;;;23.60;13.95;;;;;;;3.79;100.00;101157.06;10356808;28;20137;-78
2022/10/10 04:41:07;;;;;;;19.27;12.07;;;;;;;3.72;100.00;101156.47;10356950;28;20042;-78
2022/10/10 04:46:07;;;;;;;28.08;12.93;;;;;;;3.69;100.00;101141.56;10356356;28;20116;-79
2022/10/10 04:51:08;;;;;;;25.75;14.13;;;;;;;3.69;100.00;101146.75;10352823;28;20130;-78
2022/10/10 04:56:09;;;;;;;20.55;12.57;;;;;;;3.58;100.00;101152.75;10359240;28;20042;-77
2022/10/10 05:01:09;;;;;;;27.17;14.20;;;;;;;3.59;100.00;101159.72;10353485;28;20149;-78
2022/10/10 05:06:11;;;;;;;31.10;13.33;;;;;;;3.56;100.00;101163.00;10357106;28;20045;-79
2022/10/10 05:11:11;;;;;;;20.85;13.88;;;;;;;3.53;100.00;101160.16;10354040;28;20108;-78
2022/10/10 05:16:12;;;;;;;23.30;13.57;;;;;;;3.52;100.00;101161.81;10354128;28;20041;-78
2022/10/10 05:21:12;;;;;;;24.02;15.77;;;;;;;3.44;100.00;101155.13;10357323;28;20371;-74
2022/10/10 05:26:13;;;;;;;23.08;14.70;;;;;;;3.40;100.00;101149.59;10323455;28;20056;-77
2022/10/10 05:31:14;;;;;;;27.70;16.88;;;;;;;3.43;100.00;101155.03;10356919;28;20042;-77
2022/10/10 05:36:14;;;;;;;30.85;16.50;;;;;;;3.42;100.00;101155.81;10356701;28;20046;-78
2022/10/10 05:41:15;;;;;;;20.73;12.70;;;;;;;3.38;100.00;101164.97;10358190;28;20125;-78
2022/10/10 05:46:15;;;;;;;25.73;14.90;;;;;;;3.36;100.00;101162.28;10359063;28;20533;-78
2022/10/10 05:51:16;;;;;;;21.80;15.02;;;;;;;3.42;100.00;101164.44;10356169;28;20128;-78
2022/10/10 05:56:16;;;;;;;23.33;14.25;;;;;;;3.42;100.00;101161.88;10357336;28;20113;-78
2022/10/10 06:01:17;;;;;;;22.13;12.30;;;;;;;3.53;100.00;101168.81;10358369;28;21591;-78
2022/10/10 06:06:18;;;;;;;19.67;12.68;;;;;;;3.55;100.00;101157.69;10354944;28;20076;-78
2022/10/10 06:11:19;;;;;;;26.20;15.00;;;;;;;3.61;100.00;101163.34;10354872;28;20105;-78
2022/10/10 06:16:21;;;;;;;20.20;13.00;;;;;;;3.66;100.00;101156.84;10336004;28;20375;-77
2022/10/10 06:21:22;;;;;;;22.88;12.07;;;;;;;3.75;100.00;101155.00;10339579;28;20406;-77
2022/10/10 06:26:22;;;;;;;20.38;11.52;;;;;;;3.85;100.00;101163.50;10356938;28;20045;-78
2022/10/10 06:31:23;;;;;;;18.42;11.82;;;;;;;3.96;100.00;101168.75;10364356;28;20077;-78
2022/10/10 06:36:23;;;;;;;20.73;12.13;;;;;;;4.09;100.00;101162.84;10361907;28;20046;-78
2022/10/10 06:41:24;;;;;;;20.70;11.75;;;;;;;4.23;100.00;101165.63;10364048;28;20038;-79
2022/10/10 06:46:24;;;;;;;25.48;14.45;;;;;;;4.29;100.00;101168.69;10362647;28;20041;-77
2022/10/10 06:51:25;;;;;;;18.63;10.88;;;;;;;4.45;100.00;101164.69;10352777;28;20490;-78
2022/10/10 06:56:26;;;;;;;14.77;10.30;;;;;;;4.59;100.00;101170.94;10355810;28;20041;-76
2022/10/10 07:01:27;;;;;;;20.60;9.75;;;;;;;4.79;100.00;101168.19;10362400;28;20402;-77
2022/10/10 07:06:28;;;;;;;19.60;10.82;;;;;;;4.98;100.00;101175.66;10362618;28;20041;-77
2022/10/10 07:11:29;;;;;;;20.02;9.77;;;;;;;5.05;100.00;101168.31;10361522;28;20046;-77
2022/10/10 07:16:29;;;;;;;18.50;10.68;;;;;;;5.12;100.00;101176.69;10361973;28;20117;-77
2022/10/10 07:21:30;;;;;;;15.63;9.98;;;;;;;5.19;100.00;101182.34;10362987;28;20080;-79
2022/10/10 07:26:35;;;;;;;17.88;10.27;;;;;;;5.40;100.00;101183.94;10360649;28;20053;-78
2022/10/10 07:31:36;;;;;;;22.80;11.68;;;;;;;5.87;100.00;101192.47;10362647;28;20042;-78
2022/10/10 07:36:37;;;;;;;21.92;11.55;;;;;;;6.29;100.00;101203.22;10361897;28;20037;-78
2022/10/10 07:41:37;;;;;;;16.58;8.90;;;;;;;6.69;100.00;101208.59;10356910;28;20041;-78
2022/10/10 07:46:39;;;;;;;25.80;9.85;;;;;;;6.98;100.00;101208.78;10360841;28;20419;-78
2022/10/10 07:51:40;;;;;;;18.67;8.27;;;;;;;7.24;100.00;101205.31;10360206;28;20129;-78
2022/10/10 07:56:41;;;;;;;18.30;9.52;;;;;;;7.51;100.00;101214.88;10343309;28;20053;-78
2022/10/10 08:01:42;;;;;;;16.67;7.67;;;;;;;7.75;100.00;101205.13;10363738;28;20128;-81
2022/10/10 08:06:43;;;;;;;20.88;9.30;;;;;;;8.20;100.00;101214.06;10347949;28;20041;-82
2022/10/10 08:11:43;;;;;;;12.55;6.82;;;;;;;8.62;100.00;101208.88;10357319;28;20418;-80
2022/10/10 08:16:44;;;;;;;16.13;7.25;;;;;;;9.19;100.00;101206.13;10360671;28;20052;-80
2022/10/10 08:21:44;;;;;;;10.32;5.63;;;;;;;10.00;100.00;101210.69;10357724;28;20120;-81
2022/10/10 08:26:45;;;;;;;13.50;6.82;;;;;;;10.83;100.00;101216.88;10358364;28;20068;-80
2022/10/10 08:31:45;;;;;;;13.45;5.47;;;;;;;11.51;100.00;101211.56;10360467;28;20533;-80
2022/10/10 08:36:46;;;;;;;15.73;6.28;;;;;;;12.24;99.08;101225.50;10355044;28;20060;-81
2022/10/10 08:41:50;;;;;;;11.68;5.88;;;;;;;12.84;94.68;101216.81;10340314;28;20034;-80
2022/10/10 08:46:57;;;;;;;17.33;4.53;;;;;;;13.52;89.77;101229.38;10358257;28;20046;-82
2022/10/10 08:52:06;;;;;;;7.53;3.85;;;;;;;13.55;86.08;101226.88;10360255;28;20364;-82
2022/10/10 08:57:13;;;;;;;11.45;4.95;;;;;;;14.01;86.99;101224.28;10342750;28;20049;-82
2022/10/10 09:02:24;;;;;;;11.52;4.45;;;;;;;14.24;81.47;101222.53;10343342;28;20048;-81
2022/10/10 09:07:38;;;;;;;13.30;5.30;;;;;;;14.38;80.71;101236.25;10357690;28;20050;-81
2022/10/10 09:13:04;;;;;;;12.52;3.88;;;;;;;14.60;83.27;101244.94;10342568;28;20042;-81
2022/10/10 09:18:28;;;;;;;12.98;4.63;;;;;;;14.91;78.50;101239.06;10357660;28;20534;-81
2022/10/10 09:23:35;;;;;;;11.32;4.43;;;;;;;15.42;75.96;101234.66;10360737;28;20156;-81
2022/10/10 09:28:43;;;;;;;14.05;6.25;;;;;;;16.29;71.27;101238.34;10342434;28;20026;-82
2022/10/10 09:33:57;;;;;;;9.88;5.18;;;;;;;16.48;69.02;101237.97;10326973;28;20112;-82
2022/10/10 09:39:19;;;;;;;9.40;4.90;;;;;;;17.26;68.43;101235.75;10359236;28;20144;-82
2022/10/10 09:44:20;;;;;;;11.82;4.63;;;;;;;18.82;61.29;101238.41;10359622;28;20049;-81
2022/10/10 09:49:20;;;;;;;11.80;4.95;;;;;;;19.78;56.26;101232.16;10342498;28;20486;-81
2022/10/10 09:54:21;;;;;;;8.70;5.30;;;;;;;19.62;59.50;101228.34;10358586;28;20037;-79
2022/10/10 09:59:42;;;;;;;6.75;3.40;;;;;;;21.30;51.77;101234.94;10341775;28;20613;-79
2022/10/10 10:04:42;;;;;;;9.05;3.95;;;;;;;21.74;52.50;101236.19;10364734;28;20096;-79
2022/10/10 10:09:49;;;;;;;8.68;3.78;;;;;;;22.32;49.07;101242.75;10366725;28;20108;-79
2022/10/10 10:14:50;;;;;;;6.35;3.95;;;;;;;22.24;51.14;101237.41;10349633;28;20049;-79
2022/10/10 10:19:51;;;;;;;6.60;3.60;;;;;;;23.05;46.81;101251.94;10350182;28;20429;-79
2022/10/10 10:24:51;;;;;;;8.50;3.73;;;;;;;24.02;45.54;101251.09;10363863;28;20065;-79
2022/10/10 10:29:54;;;;;;;13.40;3.33;;;;;;;24.77;42.06;101238.38;10366093;28;20030;-79
2022/10/10 10:35:16;;;;;;;12.25;4.28;;;;;;;24.28;45.73;101243.94;10348270;28;20150;-79
2022/10/10 10:40:56;;;;;;;15.75;4.65;;;;;;;23.15;46.08;101244.84;10366741;28;20038;-80
2022/10/10 10:45:59;;;;;;;12.00;4.28;;;;;;;21.59;52.47;101248.47;10327539;28;20057;-80
2022/10/10 10:51:16;;;;;;;10.75;3.90;;;;;;;20.97;54.30;101243.50;10367864;28;20076;-80
2022/10/10 10:56:37;;;;;;;14.07;4.05;;;;;;;19.49;58.54;101255.56;10349343;28;20037;-80
2022/10/10 11:02:22;;;;;;;9.90;4.10;;;;;;;18.45;61.73;101273.00;10364941;28;20064;-80
2022/10/10 11:07:23;;;;;;;12.30;3.88;;;;;;;18.03;63.35;101272.09;10326494;28;20410;-79
2022/10/10 11:12:30;;;;;;;15.07;3.67;;;;;;;18.00;64.51;101265.81;10346713;28;20056;-80
2022/10/10 11:17:53;;;;;;;12.23;4.43;;;;;;;18.58;65.01;101257.38;10363569;28;20042;-80
2022/10/10 11:23:15;;;;;;;11.68;3.78;;;;;;;19.15;62.08;101262.91;10364733;28;20038;-79
2022/10/10 11:28:22;;;;;;;9.93;4.70;;;;;;;19.40;63.05;101258.06;10364470;28;20490;-80
2022/10/10 11:33:43;;;;;;;11.02;3.65;;;;;;;19.67;59.34;101262.97;10362858;28;20133;-79
2022/10/10 11:38:47;;;;;;;14.30;3.88;;;;;;;19.01;60.48;101268.84;10360109;28;20198;-79
2022/10/10 11:43:50;;;;;;;9.85;3.70;;;;;;;18.85;62.92;101274.69;10344753;28;20513;-80
2022/10/10 11:49:28;;;;;;;13.52;3.67;;;;;;;18.66;62.34;101273.44;10362638;28;20050;-80
2022/10/10 11:54:37;;;;;;;12.82;4.15;;;;;;;18.60;62.56;101277.75;10273131;28;20546;-82
2022/10/10 11:59:47;;;;;;;10.70;3.83;;;;;;;19.43;62.05;101276.69;10361888;28;20441;-82
2022/10/10 12:04:49;;;;;;;9.48;4.35;;;;;;;20.14;56.40;101269.00;10360180;28;20038;-80
2022/10/10 12:09:53;;;;;;;8.47;3.00;;;;;;;20.45;58.27;101272.97;10360485;28;20088;-79
2022/10/10 12:14:54;;;;;;;10.32;3.90;;;;;;;21.82;56.44;101272.69;10344164;28;20041;-79
2022/10/10 12:19:55;;;;;;;12.10;3.83;;;;;;;22.97;53.79;101265.28;10359990;28;20034;-79
2022/10/10 12:25:33;;;;;;;15.32;9.10;;;;;;;23.69;47.58;101268.94;10359296;28;20269;-78
2022/10/10 12:30:33;;;;;;;12.02;5.43;;;;;;;24.99;43.30;101261.44;10354431;28;20104;-80
2022/10/10 12:35:38;;;;;;;11.93;5.93;;;;;;;24.69;43.73;101268.72;10359504;28;20065;-79
2022/10/10 12:41:06;;;;;;;26.30;5.25;;;;;;;25.33;41.31;101272.84;10358751;28;20038;-80
2022/10/10 12:46:24;;;;;;;15.45;3.92;;;;;;;24.86;42.05;101277.56;10307969;28;20126;-81
2022/10/10 12:51:25;;;;;;;11.13;4.63;;;;;;;23.98;45.73;101284.06;10359571;28;20038;-78
2022/10/10 12:56:41;;;;;;;13.70;4.10;;;;;;;24.37;43.31;101281.34;10357997;28;20037;-82
2022/10/10 13:01:44;;;;;;;9.07;3.75;;;;;;;24.60;44.95;101270.53;10343189;28;20045;-79
2022/10/10 13:06:44;;;;;;;11.13;4.30;;;;;;;24.77;42.54;101275.84;10358101;28;20037;-78
2022/10/10 13:11:59;;;;;;;8.97;3.73;;;;;;;24.18;43.14;101283.16;10342103;28;20049;-79
2022/10/10 13:17:00;;;;;;;9.63;2.95;;;;;;;22.16;47.98;101280.00;10359373;28;20033;-79
2022/10/10 13:22:00;;;;;;;13.63;5.07;;;;;;;20.29;52.82;101300.22;10357778;28;20065;-79
2022/10/10 13:27:01;;;;;;;15.32;4.13;;;;;;;19.61;56.80;101289.41;10360047;28;20124;-79
2022/10/10 13:32:12;;;;;;;12.50;3.45;;;;;;;19.46;57.44;101292.66;10356527;28;20041;-79
2022/10/10 13:37:14;;;;;;;6.13;3.00;;;;;;;18.94;56.08;101306.69;10357502;28;20180;-79
2022/10/10 13:42:27;;;;;;;6.05;2.63;;;;;;;18.60;57.57;101324.56;10338859;28;20047;-78
2022/10/10 13:47:50;;;;;;;15.32;4.53;;;;;;;18.22;60.88;101327.22;10366098;28;20045;-79
2022/10/10 13:53:27;;;;;;;16.20;3.55;;;;;;;17.65;61.50;101335.53;10357472;28;20053;-77
2022/10/10 13:58:30;;;;;;;9.10;3.10;;;;;;;17.27;60.99;101338.06;10353584;28;20066;-78
2022/10/10 14:03:32;;;;;;;10.32;4.53;;;;;;;17.01;61.48;101349.69;10353932;28;20038;-78
2022/10/10 14:08:33;;;;;;;10.63;4.10;;;;;;;16.68;63.28;101361.00;10340886;28;20046;-78
2022/10/10 14:13:35;;;;;;;13.50;4.38;;;;;;;16.39;67.70;101368.03;10356532;28;20545;-78
2022/10/10 14:18:35;;;;;;;;;;;;;;;16.24;69.34;101369.34;10356535;28;20038;-79
2022/10/10 14:23:36;;;;;;;18.20;4.90;;;;;;;16.48;70.31;101375.34;10357130;28;19926;-78
2022/10/10 14:28:37;;;;;;;9.02;3.60;;;;;;;16.88;69.56;101392.44;10356782;28;20057;-80
2022/10/10 14:33:37;;;;;;;7.00;3.08;;;;;;;17.19;70.70;101397.78;10340878;28;20577;-81
2022/10/10 14:38:38;;;;;;;9.68;4.15;;;;;;;17.10;69.65;101391.38;10355676;28;20034;-80
2022/10/10 14:43:39;;;;;;;10.50;4.32;;;;;;;16.99;69.10;101391.03;10358768;28;20053;-81
2022/10/10 14:48:39;;;;;;;12.25;4.40;;;;;;;17.43;69.64;101401.13;10359480;28;20512;-81
2022/10/10 14:53:40;;;;;;;7.10;4.63;;;;;;;17.65;67.37;101414.03;10363071;28;20040;-82
2022/10/10 14:58:40;;;;;;;12.20;5.63;;;;;;;17.13;68.54;101432.88;10363289;28;20041;-80
2022/10/10 15:03:41;;;;;;;13.63;4.97;;;;;;;16.85;70.91;101430.25;10364090;28;20057;-81
2022/10/10 15:08:41;;;;;;;12.52;6.45;;;;;;;16.67;71.65;101445.53;10364816;28;20057;-81
2022/10/10 15:13:42;;;;;;;13.68;6.78;;;;;;;16.41;73.42;101462.34;10362335;28;20038;-80
2022/10/10 15:18:42;;;;;;;14.73;8.60;;;;;;;16.36;72.59;101463.03;10362230;28;20037;-80
2022/10/10 15:23:43;;;;;;;12.50;8.32;;;;;;;16.29;74.04;101473.41;10363968;28;20052;-79
2022/10/10 15:28:43;;;;;;;14.77;8.63;;;;;;;16.19;74.79;101495.06;10362333;28;20565;-79
2022/10/10 15:33:44;;;;;;;15.52;9.35;;;;;;;15.96;75.97;101504.78;10363621;28;20036;-79
2022/10/10 15:38:44;;;;;;;18.23;8.77;;;;;;;15.72;77.43;101516.22;10358956;28;20128;-78
2022/10/10 15:43:51;;;;;;;29.25;9.52;;;;;;;15.48;79.21;101521.50;10355288;28;20092;-76
2022/10/10 15:48:52;;;;;;;11.25;6.75;;;;;;;15.18;81.31;101541.44;10350055;28;20034;-78
2022/10/10 15:53:59;;;;;;;14.70;6.90;;;;;;;14.90;83.43;101544.72;10359415;28;20057;-77
2022/10/10 15:59:00;;;;;;;14.57;7.43;;;;;;;14.78;85.21;101545.13;10358376;28;20050;-79
2022/10/10 16:04:01;;;;;;;20.48;10.55;;;;;;;14.59;85.22;101553.97;10350195;28;20078;-79
2022/10/10 16:09:02;;;;;;;13.48;6.75;;;;;;;14.49;85.19;101545.69;10345169;28;20460;-82
2022/10/10 16:14:02;;;;;;;15.40;6.88;;;;;;;14.38;86.03;101561.00;10352644;28;20037;-79
2022/10/10 16:19:03;;;;;;;8.75;4.93;;;;;;;14.19;87.72;101577.75;10354965;28;20573;-79
2022/10/10 16:24:04;;;;;;;9.02;4.90;;;;;;;14.09;88.53;101592.22;10357142;28;20034;-80
2022/10/10 16:29:07;;;;;;;10.73;6.05;;;;;;;13.98;89.57;101608.38;10356467;28;20049;-81
2022/10/10 16:34:08;;;;;;;8.70;5.47;;;;;;;13.93;89.45;101613.41;10341502;28;20556;-82
2022/10/10 16:39:09;;;;;;;4.97;3.00;;;;;;;13.49;88.84;101636.81;10352703;28;20045;-82
2022/10/10 16:44:09;;;;;;;2.30;1.88;;;;;;;13.18;90.96;101651.06;10358289;28;20076;-82
2022/10/10 16:49:11;;;;;;;1.75;0.73;;;;;;;12.84;92.11;101671.28;10342333;28;20116;-82
2022/10/10 16:54:11;;;;;;;1.67;0.70;;;;;;;12.56;91.20;101679.47;10358851;28;20045;-81
2022/10/10 16:59:12;;;;;;;1.35;0.80;;;;;;;12.44;91.44;101692.81;10357880;28;20061;-82
2022/10/10 17:04:12;;;;;;;2.58;1.77;;;;;;;12.29;91.02;101700.78;10357978;28;20048;-80
2022/10/10 17:09:15;;;;;;;3.33;1.50;;;;;;;12.16;91.84;101714.94;10356939;28;20038;-80
2022/10/10 17:14:16;;;;;;;7.63;1.63;;;;;;;12.04;91.11;101725.69;10358895;28;20040;-81
2022/10/10 17:19:17;;;;;;;3.53;0.98;;;;;;;11.93;91.73;101726.78;10357925;28;20048;-80
2022/10/10 17:24:17;;;;;;;10.57;4.20;;;;;;;11.84;92.34;101732.41;10357680;28;20546;-80
2022/10/10 17:29:18;;;;;;;6.47;1.92;;;;;;;11.77;91.75;101744.28;10354755;28;20333;-80
2022/10/10 17:34:18;;;;;;;7.03;1.92;;;;;;;11.66;90.90;101767.25;10338055;28;20038;-81
2022/10/10 17:39:19;;;;;;;16.88;3.60;;;;;;;11.68;90.57;101777.84;10356769;28;20042;-81
2022/10/10 17:44:19;;;;;;;15.43;2.25;;;;;;;11.73;89.57;101786.88;10352157;28;20852;-80
2022/10/10 17:49:20;;;;;;;12.45;2.85;;;;;;;11.68;89.69;101798.81;10355811;28;20108;-81
2022/10/10 17:54:22;;;;;;;10.63;3.63;;;;;;;11.57;90.20;101808.66;10356425;28;20038;-79
2022/10/10 17:59:22;;;;;;;9.03;2.33;;;;;;;11.58;90.40;101815.72;10332132;28;20398;-78
2022/10/10 18:04:23;;;;;;;4.65;2.15;;;;;;;11.50;91.75;101825.78;10356998;28;20071;-79
2022/10/10 18:09:23;;;;;;;13.13;2.90;;;;;;;11.44;91.69;101828.91;10354817;28;20049;-79
2022/10/10 18:14:24;;;;;;;7.82;2.63;;;;;;;11.32;92.85;101828.19;10357016;28;20072;-79
2022/10/10 18:19:28;;;;;;;9.70;3.38;;;;;;;11.21;93.77;101838.03;10354402;28;20125;-79
2022/10/10 18:24:28;;;;;;;12.48;2.80;;;;;;;11.04;94.49;101842.22;10340294;28;20076;-79
2022/10/10 18:29:29;;;;;;;9.98;2.83;;;;;;;10.95;95.78;101862.63;10338219;28;20052;-80
2022/10/10 18:34:30;;;;;;;10.70;3.58;;;;;;;10.56;95.05;101868.09;10363085;28;20042;-80
2022/10/10 18:39:34;;;;;;;14.40;5.05;;;;;;;10.02;97.14;101878.56;10364425;28;20428;-78
2022/10/10 18:44:34;;;;;;;20.92;5.97;;;;;;;9.61;99.11;101893.25;10362688;28;20042;-79
2022/10/10 18:49:35;;;;;;;12.40;4.75;;;;;;;9.19;100.00;101895.66;10362807;28;20041;-78
2022/10/10 18:54:36;;;;;;;12.43;3.35;;;;;;;8.87;100.00;101903.81;10344875;28;20045;-79
2022/10/10 18:59:36;;;;;;;6.57;3.00;;;;;;;8.62;100.00;101912.50;10364592;28;20153;-80
2022/10/10 19:04:37;;;;;;;12.05;3.38;;;;;;;8.43;100.00;101932.00;10365726;28;20128;-82
2022/10/10 19:09:38;;;;;;;12.55;4.10;;;;;;;8.26;100.00;101928.16;10363054;28;20042;-78
2022/10/10 19:14:39;;;;;;;20.97;4.83;;;;;;;8.19;100.00;101932.00;10363626;28;20049;-78
2022/10/10 19:19:40;;;;;;;12.07;3.63;;;;;;;8.18;100.00;101943.22;10361913;28;20085;-78
2022/10/10 19:24:41;;;;;;;9.80;3.63;;;;;;;8.12;100.00;101944.47;10360121;28;20041;-80
2022/10/10 19:29:41;;;;;;;29.70;4.53;;;;;;;7.99;100.00;101947.84;10362889;28;20041;-80
2022/10/10 19:34:42;;;;;;;15.18;3.22;;;;;;;7.80;100.00;101959.47;10359922;28;20034;-80
2022/10/10 19:39:42;;;;;;;31.58;6.50;;;;;;;7.66;100.00;101974.06;10359838;28;20134;-81
2022/10/10 19:44:46;;;;;;;11.60;3.70;;;;;;;7.45;100.00;101987.25;10361229;28;20050;-80
2022/10/10 19:49:46;;;;;;;17.33;3.95;;;;;;;7.43;100.00;101987.91;10361042;28;20574;-80
2022/10/10 19:54:47;;;;;;;10.00;4.05;;;;;;;7.18;100.00;101997.31;10360294;28;20046;-80
2022/10/10 19:59:47;;;;;;;15.82;5.07;;;;;;;7.13;100.00;102009.03;10363511;28;20149;-79
2022/10/10 20:04:48;;;;;;;13.90;5.15;;;;;;;7.15;100.00;102011.75;10362430;28;20034;-80
2022/10/10 20:09:49;;;;;;;20.13;5.82;;;;;;;7.01;100.00;102029.78;10361502;28;20103;-79
2022/10/10 20:14:49;;;;;;;21.92;5.47;;;;;;;6.89;100.00;102031.38;10346269;28;20482;-79
2022/10/10 20:19:50;;;;;;;18.08;6.13;;;;;;;6.74;100.00;102037.16;10359945;28;20066;-79
2022/10/10 20:24:50;;;;;;;14.05;5.18;;;;;;;6.61;100.00;102040.47;10358755;28;20499;-79
2022/10/10 20:29:51;;;;;;;17.60;5.95;;;;;;;6.52;100.00;102055.31;10360390;28;20038;-79
2022/10/10 20:34:52;;;;;;;13.35;7.60;;;;;;;6.46;100.00;102060.88;10359199;28;20081;-79
2022/10/10 20:39:52;;;;;;;21.95;7.35;;;;;;;6.31;100.00;102063.13;10361027;28;20548;-79
2022/10/10 20:44:53;;;;;;;24.75;7.82;;;;;;;6.25;100.00;102072.09;10362042;28;20080;-80
2022/10/10 20:49:54;;;;;;;17.45;4.97;;;;;;;6.32;100.00;102082.22;10359227;28;20057;-80
2022/10/10 20:54:54;;;;;;;15.27;7.18;;;;;;;6.30;100.00;102092.50;10357153;28;20137;-80
2022/10/10 20:59:55;;;;;;;14.00;5.40;;;;;;;6.40;100.00;102090.69;10355340;28;20076;-81
2022/10/10 21:04:55;;;;;;;13.80;7.35;;;;;;;6.27;100.00;102100.06;10359442;28;20049;-82
2022/10/10 21:09:57;;;;;;;17.67;6.55;;;;;;;6.10;100.00;102105.50;10358272;28;20046;-79
2022/10/10 21:15:01;;;;;;;14.73;7.20;;;;;;;5.99;100.00;102113.25;10358147;28;20466;-78
2022/10/10 21:20:01;;;;;;;40.97;7.63;;;;;;;5.98;100.00;102123.50;10360197;28;20033;-79
2022/10/10 21:25:02;;;;;;;22.40;8.25;;;;;;;5.94;100.00;102126.63;10380644;28;20132;-79
2022/10/10 21:30:07;;;;;;;14.52;6.75;;;;;;;5.92;100.00;102131.69;10355183;28;20050;-79
2022/10/10 21:35:07;;;;;;;19.38;8.38;;;;;;;5.84;100.00;102131.00;10357393;28;20053;-79
2022/10/10 21:40:09;;;;;;;21.52;6.82;;;;;;;5.79;100.00;102136.59;10359767;28;20049;-79
2022/10/10 21:45:09;;;;;;;23.92;8.55;;;;;;;5.73;100.00;102134.38;10358468;28;20049;-78
2022/10/10 21:50:11;;;;;;;11.30;7.35;;;;;;;5.65;100.00;102137.97;10359306;28;20038;-77
2022/10/10 21:55:12;;;;;;;23.63;8.70;;;;;;;5.48;100.00;102134.81;10357663;28;20045;-78
2022/10/10 22:00:13;;;;;;;18.27;7.07;;;;;;;5.41;100.00;102142.81;10364863;28;20469;-79
2022/10/10 22:05:14;;;;;;;31.27;9.98;;;;;;;5.39;100.00;102149.56;10365655;28;20037;-78
2022/10/10 22:10:16;;;;;;;18.63;8.95;;;;;;;5.41;100.00;102153.22;10349756;28;20033;-79
2022/10/10 22:15:17;;;;;;;33.63;11.60;;;;;;;5.40;100.00;102148.78;10364774;28;20429;-79
2022/10/10 22:20:17;;;;;;;21.90;12.10;;;;;;;5.29;100.00;102159.13;10368143;28;20049;-79
2022/10/10 22:25:18;;;;;;;39.28;9.25;;;;;;;5.09;100.00;102159.00;10348892;28;20121;-78
2022/10/10 22:30:18;;;;;;;22.83;9.75;;;;;;;5.04;100.00;102165.47;10365031;28;20038;-79
2022/10/10 22:35:19;;;;;;;25.00;11.18;;;;;;;5.04;100.00;102170.66;10367082;28;20117;-78
2022/10/10 22:40:22;;;;;;;26.05;12.43;;;;;;;5.04;100.00;102181.03;10348584;28;20478;-79
2022/10/10 22:45:22;;;;;;;23.38;11.40;;;;;;;4.96;100.00;102176.06;10364180;28;20046;-78
2022/10/10 22:50:23;;;;;;;31.13;11.73;;;;;;;4.94;100.00;102175.00;10363447;28;20120;-78
2022/10/10 22:55:23;;;;;;;23.00;12.25;;;;;;;4.96;100.00;102177.75;10364443;28;20046;-78
2022/10/10 23:00:24;;;;;;;22.10;12.77;;;;;;;4.90;100.00;102191.06;10365941;28;20034;-78